createdAt,value
2018-03-21T00:00:35.164Z,96.96
2018-03-21T00:01:35.729Z,96.87
2018-03-21T00:02:36.291Z,96.11
2018-03-21T00:03:36.854Z,95.83
2018-03-21T00:04:37.417Z,96.40
2018-03-21T00:05:37.984Z,95.64
2018-03-21T00:06:38.557Z,95.26
2018-03-21T00:07:39.132Z,95.64
2018-03-21T00:08:39.701Z,96.49
2018-03-21T00:09:40.261Z,96.49
2018-03-21T00:10:40.824Z,95.83
2018-03-21T00:11:41.394Z,95.45
2018-03-21T00:12:41.967Z,95.45
2018-03-21T00:13:42.532Z,95.26
2018-03-21T00:14:43.099Z,95.17
2018-03-21T00:15:43.664Z,94.41
2018-03-21T00:16:44.230Z,94.79
2018-03-21T00:17:44.800Z,94.51
2018-03-21T00:18:45.359Z,95.26
2018-03-21T00:19:45.929Z,95.45
2018-03-21T00:20:46.487Z,95.64
2018-03-21T00:21:47.053Z,95.17
2018-03-21T00:22:47.622Z,94.70
2018-03-21T00:23:48.183Z,95.26
2018-03-21T00:24:48.759Z,94.89
2018-03-21T00:25:49.328Z,95.64
2018-03-21T00:26:49.889Z,95.64
2018-03-21T00:27:50.451Z,95.45
2018-03-21T00:28:51.018Z,95.64
2018-03-21T00:29:51.583Z,94.60
2018-03-21T00:30:52.148Z,94.98
2018-03-21T00:31:52.714Z,95.26
2018-03-21T00:32:53.279Z,94.89
2018-03-21T00:33:53.842Z,94.22
2018-03-21T00:34:54.407Z,93.84
2018-03-21T00:35:54.972Z,93.84
2018-03-21T00:36:55.536Z,94.13
2018-03-21T00:37:56.099Z,94.70
2018-03-21T00:38:56.663Z,95.36
2018-03-21T00:39:57.229Z,95.17
2018-03-21T00:40:57.794Z,94.89
2018-03-21T00:41:58.360Z,94.41
2018-03-21T00:42:58.925Z,95.45
2018-03-21T00:43:59.490Z,95.54
2018-03-21T00:45:00.057Z,95.73
2018-03-21T00:46:00.619Z,95.54
2018-03-21T00:47:01.183Z,95.45
2018-03-21T00:48:01.746Z,95.73
2018-03-21T00:49:02.310Z,95.64
2018-03-21T00:50:02.874Z,96.68
2018-03-21T00:51:03.450Z,96.49
2018-03-21T00:52:04.013Z,98.00
2018-03-21T00:53:04.579Z,97.44
2018-03-21T00:54:05.141Z,97.53
2018-03-21T00:55:05.709Z,97.72
2018-03-21T00:56:06.273Z,97.25
2018-03-21T00:57:06.837Z,97.53
2018-03-21T00:58:07.402Z,97.34
2018-03-21T00:59:07.967Z,96.96
2018-03-21T01:00:08.532Z,96.40
2018-03-21T01:01:09.096Z,96.21
2018-03-21T01:02:09.661Z,96.68
2018-03-21T01:03:10.235Z,97.25
2018-03-21T01:04:10.804Z,96.68
2018-03-21T01:05:11.367Z,96.49
2018-03-21T01:06:11.931Z,96.49
2018-03-21T01:07:12.496Z,95.83
2018-03-21T01:08:13.072Z,96.40
2018-03-21T01:09:13.638Z,96.21
2018-03-21T01:10:14.204Z,97.63
2018-03-21T01:11:14.768Z,97.34
2018-03-21T01:12:15.331Z,97.34
2018-03-21T01:13:15.895Z,97.81
2018-03-21T01:14:16.459Z,97.15
2018-03-21T01:15:17.023Z,97.34
2018-03-21T01:16:17.586Z,97.53
2018-03-21T01:17:18.162Z,97.25
2018-03-21T01:18:18.732Z,97.44
2018-03-21T01:19:19.291Z,97.34
2018-03-21T01:20:19.867Z,97.91
2018-03-21T01:21:20.430Z,97.53
2018-03-21T01:22:20.998Z,97.06
2018-03-21T01:23:21.562Z,98.10
2018-03-21T01:24:22.130Z,98.00
2018-03-21T01:25:22.690Z,98.19
2018-03-21T01:26:23.254Z,97.72
2018-03-21T01:27:23.817Z,98.38
2018-03-21T01:28:24.390Z,98.10
2018-03-21T01:29:24.947Z,97.81
2018-03-21T01:30:25.512Z,98.47
2018-03-21T01:31:26.080Z,97.91
2018-03-21T01:32:26.653Z,97.25
2018-03-21T01:33:27.219Z,97.91
2018-03-21T01:34:27.785Z,97.81
2018-03-21T01:35:28.354Z,97.53
2018-03-21T01:36:28.916Z,96.30
2018-03-21T01:37:29.480Z,96.49
2018-03-21T01:38:30.044Z,96.30
2018-03-21T01:39:30.608Z,96.68
2018-03-21T01:40:31.176Z,95.83
2018-03-21T01:41:31.735Z,96.30
2018-03-21T01:42:32.311Z,96.21
2018-03-21T01:43:32.887Z,97.06
2018-03-21T01:44:33.454Z,96.21
2018-03-21T01:45:34.017Z,95.64
2018-03-21T01:46:34.584Z,96.21
2018-03-21T01:47:35.148Z,97.44
2018-03-21T01:48:35.714Z,97.72
2018-03-21T01:49:36.291Z,97.34
2018-03-21T01:50:36.864Z,96.87
2018-03-21T01:51:37.430Z,96.49
2018-03-21T01:52:37.996Z,96.40
2018-03-21T01:53:38.560Z,96.63
2018-03-21T01:54:39.125Z,95.45
2018-03-21T01:55:39.689Z,96.25
2018-03-21T01:56:40.256Z,95.64
2018-03-21T01:57:40.823Z,96.25
2018-03-21T01:58:41.383Z,96.21
2018-03-21T01:59:41.947Z,97.91
2018-03-21T02:00:42.513Z,96.91
2018-03-21T02:01:43.078Z,96.35
2018-03-21T02:02:43.643Z,95.68
2018-03-21T02:03:44.209Z,96.54
2018-03-21T02:04:44.772Z,97.67
2018-03-21T02:05:45.341Z,97.67
2018-03-21T02:06:45.901Z,96.82
2018-03-21T02:07:46.465Z,96.16
2018-03-21T02:08:47.029Z,96.35
2018-03-21T02:09:47.593Z,95.78
2018-03-21T02:10:48.157Z,95.50
2018-03-21T02:11:48.729Z,94.46
2018-03-21T02:12:49.290Z,94.74
2018-03-21T02:13:49.855Z,96.35
2018-03-21T02:14:50.419Z,96.35
2018-03-21T02:15:50.983Z,96.06
2018-03-21T02:16:51.549Z,96.16
2018-03-21T02:17:52.111Z,96.63
2018-03-21T02:18:52.678Z,96.54
2018-03-21T02:19:53.251Z,96.35
2018-03-21T02:20:53.857Z,97.86
2018-03-21T02:21:54.379Z,97.01
2018-03-21T02:22:54.944Z,97.34
2018-03-21T02:23:55.507Z,97.67
2018-03-21T02:24:56.073Z,97.77
2018-03-21T02:25:56.634Z,97.39
2018-03-21T02:26:57.197Z,97.01
2018-03-21T02:27:57.764Z,97.01
2018-03-21T02:28:58.330Z,97.10
2018-03-21T02:29:58.894Z,96.44
2018-03-21T02:30:59.471Z,97.20
2018-03-21T02:32:00.036Z,96.25
2018-03-21T02:33:00.601Z,95.78
2018-03-21T02:34:01.173Z,95.03
2018-03-21T02:35:01.732Z,96.63
2018-03-21T02:36:02.302Z,94.93
2018-03-21T02:37:02.857Z,96.35
2018-03-21T02:38:03.423Z,96.35
2018-03-21T02:39:03.985Z,95.50
2018-03-21T02:40:04.550Z,95.03
2018-03-21T02:41:05.126Z,93.70
2018-03-21T02:42:05.692Z,95.78
2018-03-21T02:43:06.272Z,96.06
2018-03-21T02:44:06.834Z,95.59
2018-03-21T02:45:07.391Z,95.97
2018-03-21T02:46:07.965Z,95.40
2018-03-21T02:47:08.520Z,94.93
2018-03-21T02:48:09.085Z,94.37
2018-03-21T02:49:09.648Z,94.08
2018-03-21T02:50:10.222Z,95.68
2018-03-21T02:51:10.792Z,94.37
2018-03-21T02:52:11.351Z,95.03
2018-03-21T02:53:11.915Z,94.56
2018-03-21T02:54:12.479Z,95.12
2018-03-21T02:55:13.042Z,95.97
2018-03-21T02:56:13.605Z,96.25
2018-03-21T02:57:14.168Z,95.12
2018-03-21T02:58:14.732Z,93.99
2018-03-21T02:59:15.315Z,94.65
2018-03-21T03:00:15.860Z,93.80
2018-03-21T03:01:16.433Z,93.80
2018-03-21T03:02:16.999Z,91.63
2018-03-21T03:03:17.561Z,93.13
2018-03-21T03:04:18.140Z,94.27
2018-03-21T03:05:18.703Z,94.18
2018-03-21T03:06:19.273Z,90.02
2018-03-21T03:07:19.829Z,89.45
2018-03-21T03:08:20.393Z,90.40
2018-03-21T03:09:20.958Z,86.90
2018-03-21T03:10:21.520Z,87.37
2018-03-21T03:11:22.083Z,87.47
2018-03-21T03:12:22.646Z,85.68
2018-03-21T03:13:23.219Z,86.24
2018-03-21T03:14:23.783Z,85.68
2018-03-21T03:15:24.352Z,83.69
2018-03-21T03:16:24.912Z,84.92
2018-03-21T03:17:25.474Z,83.22
2018-03-21T03:18:26.039Z,83.31
2018-03-21T03:19:26.603Z,82.60
2018-03-21T03:20:27.164Z,83.59
2018-03-21T03:21:27.727Z,82.37
2018-03-21T03:22:28.289Z,82.75
2018-03-21T03:23:28.853Z,81.61
2018-03-21T03:24:29.416Z,82.09
2018-03-21T03:25:29.979Z,82.37
2018-03-21T03:26:30.557Z,81.61
2018-03-21T03:27:31.124Z,80.76
2018-03-21T03:28:31.686Z,79.38
2018-03-21T03:29:32.249Z,80.48
2018-03-21T03:30:32.813Z,80.29
2018-03-21T03:31:33.375Z,78.59
2018-03-21T03:32:33.936Z,79.44
2018-03-21T03:33:34.498Z,78.87
2018-03-21T03:34:35.061Z,79.35
2018-03-21T03:35:35.625Z,77.55
2018-03-21T03:36:36.194Z,76.98
2018-03-21T03:37:36.756Z,76.32
2018-03-21T03:38:37.326Z,76.79
2018-03-21T03:39:37.884Z,76.51
2018-03-21T03:40:38.449Z,75.95
2018-03-21T03:41:39.011Z,74.24
2018-03-21T03:42:39.574Z,74.05
2018-03-21T03:43:40.139Z,72.45
2018-03-21T03:44:40.711Z,72.92
2018-03-21T03:45:41.277Z,71.12
2018-03-21T03:46:41.843Z,70.75
2018-03-21T03:47:42.404Z,68.67
2018-03-21T03:48:42.967Z,67.91
2018-03-21T03:49:43.530Z,65.65
2018-03-21T03:50:44.093Z,66.12
2018-03-21T03:51:44.656Z,64.79
2018-03-21T03:52:45.218Z,65.65
2018-03-21T03:53:45.787Z,65.46
2018-03-21T03:54:46.343Z,62.15
2018-03-21T03:55:46.906Z,64.04
2018-03-21T03:56:47.469Z,63.29
2018-03-21T03:57:48.033Z,63.48
2018-03-21T03:58:48.598Z,63.19
2018-03-21T03:59:49.162Z,62.81
2018-03-21T04:00:49.735Z,61.58
2018-03-21T04:01:50.297Z,60.83
2018-03-21T04:02:50.858Z,58.56
2018-03-21T04:03:51.421Z,58.18
2018-03-21T04:04:51.983Z,58.18
2018-03-21T04:05:52.545Z,58.75
2018-03-21T04:06:53.108Z,55.82
2018-03-21T04:07:53.671Z,56.77
2018-03-21T04:08:54.233Z,55.63
2018-03-21T04:09:54.796Z,55.63
2018-03-21T04:10:55.358Z,56.96
2018-03-21T04:11:55.921Z,54.41
2018-03-21T04:12:56.486Z,54.13
2018-03-21T04:13:57.052Z,53.75
2018-03-21T04:14:57.613Z,53.08
2018-03-21T04:15:58.179Z,53.75
2018-03-21T04:16:58.751Z,53.75
2018-03-21T04:17:59.314Z,51.57
2018-03-21T04:18:59.880Z,51.57
2018-03-21T04:20:00.445Z,52.89
2018-03-21T04:21:01.008Z,53.94
2018-03-21T04:22:01.571Z,53.37
2018-03-21T04:23:02.140Z,52.23
2018-03-21T04:24:02.699Z,51.67
2018-03-21T04:25:03.270Z,51.48
2018-03-21T04:26:03.835Z,49.78
2018-03-21T04:27:04.400Z,48.83
2018-03-21T04:28:04.972Z,47.51
2018-03-21T04:29:05.536Z,47.61
2018-03-21T04:30:06.098Z,47.61
2018-03-21T04:31:06.661Z,47.42
2018-03-21T04:32:07.235Z,47.70
2018-03-21T04:33:07.798Z,47.04
2018-03-21T04:34:08.360Z,46.85
2018-03-21T04:35:08.924Z,46.66
2018-03-21T04:36:09.497Z,46.19
2018-03-21T04:37:10.063Z,45.43
2018-03-21T04:38:10.628Z,46.56
2018-03-21T04:39:11.201Z,47.04
2018-03-21T04:40:11.765Z,46.66
2018-03-21T04:41:12.329Z,47.13
2018-03-21T04:42:12.893Z,46.66
2018-03-21T04:43:13.460Z,47.13
2018-03-21T04:44:14.021Z,46.28
2018-03-21T04:45:14.586Z,45.81
2018-03-21T04:46:15.147Z,46.19
2018-03-21T04:47:15.709Z,46.09
2018-03-21T04:48:16.286Z,45.15
2018-03-21T04:49:16.848Z,44.96
2018-03-21T04:50:17.412Z,45.41
2018-03-21T04:51:17.984Z,45.41
2018-03-21T04:52:18.537Z,44.18
2018-03-21T04:53:19.099Z,43.90
2018-03-21T04:54:19.664Z,43.80
2018-03-21T04:55:20.227Z,42.97
2018-03-21T04:56:20.789Z,41.16
2018-03-21T04:57:21.352Z,40.12
2018-03-21T04:58:21.915Z,38.82
2018-03-21T04:59:22.480Z,37.78
2018-03-21T05:00:23.050Z,36.82
2018-03-21T05:01:23.615Z,35.97
2018-03-21T05:02:24.177Z,35.23
2018-03-21T05:03:24.741Z,34.38
2018-03-21T05:04:25.315Z,33.98
2018-03-21T05:05:25.882Z,33.70
2018-03-21T05:06:26.444Z,33.23
2018-03-21T05:07:27.006Z,32.29
2018-03-21T05:08:27.589Z,32.38
2018-03-21T05:09:28.145Z,32.10
2018-03-21T05:10:28.711Z,31.44
2018-03-21T05:11:29.273Z,31.44
2018-03-21T05:12:29.848Z,31.34
2018-03-21T05:13:30.413Z,31.25
2018-03-21T05:14:30.984Z,30.40
2018-03-21T05:15:31.549Z,30.49
2018-03-21T05:16:32.110Z,30.30
2018-03-21T05:17:32.679Z,29.93
2018-03-21T05:18:33.236Z,29.74
2018-03-21T05:19:33.805Z,29.64
2018-03-21T05:20:34.362Z,29.27
2018-03-21T05:21:34.926Z,29.64
2018-03-21T05:22:35.490Z,29.08
2018-03-21T05:23:36.055Z,28.51
2018-03-21T05:24:36.619Z,28.32
2018-03-21T05:25:37.183Z,28.61
2018-03-21T05:26:37.744Z,29.17
2018-03-21T05:27:38.307Z,29.17
2018-03-21T05:28:38.874Z,29.27
2018-03-21T05:29:39.434Z,28.98
2018-03-21T05:30:40.000Z,29.17
2018-03-21T05:31:40.567Z,30.11
2018-03-21T05:32:41.130Z,30.40
2018-03-21T05:33:41.693Z,30.40
2018-03-21T05:34:42.266Z,29.83
2018-03-21T05:35:42.828Z,29.83
2018-03-21T05:36:43.392Z,29.93
2018-03-21T05:37:43.958Z,30.30
2018-03-21T05:38:44.522Z,30.96
2018-03-21T05:39:45.087Z,31.34
2018-03-21T05:40:45.651Z,31.44
2018-03-21T05:41:46.214Z,30.96
2018-03-21T05:42:46.776Z,30.30
2018-03-21T05:43:47.344Z,29.55
2018-03-21T05:44:47.914Z,28.51
2018-03-21T05:45:48.478Z,27.56
2018-03-21T05:46:49.043Z,27.19
2018-03-21T05:47:49.604Z,26.62
2018-03-21T05:48:50.167Z,26.34
2018-03-21T05:49:50.731Z,25.49
2018-03-21T05:50:51.308Z,25.49
2018-03-21T05:51:51.871Z,24.64
2018-03-21T05:52:52.437Z,24.64
2018-03-21T05:53:53.013Z,24.17
2018-03-21T05:54:53.575Z,23.98
2018-03-21T05:55:54.139Z,23.98
2018-03-21T05:56:54.703Z,24.07
2018-03-21T05:57:55.265Z,23.79
2018-03-21T05:58:55.832Z,23.32
2018-03-21T05:59:56.397Z,23.88
2018-03-21T06:00:56.960Z,23.22
2018-03-21T06:01:57.525Z,22.56
2018-03-21T06:02:58.088Z,20.96
2018-03-21T06:03:58.663Z,20.67
2018-03-21T06:04:59.228Z,20.39
2018-03-21T06:05:59.792Z,20.01
2018-03-21T06:07:00.355Z,19.26
2018-03-21T06:08:00.929Z,18.60
2018-03-21T06:09:01.493Z,18.50
2018-03-21T06:10:02.057Z,18.60
2018-03-21T06:11:02.632Z,18.41
2018-03-21T06:12:03.203Z,17.56
2018-03-21T06:13:03.761Z,17.37
2018-03-21T06:14:04.324Z,17.18
2018-03-21T06:15:04.897Z,16.89
2018-03-21T06:16:05.461Z,16.80
2018-03-21T06:17:06.030Z,15.95
2018-03-21T06:18:06.589Z,15.20
2018-03-21T06:19:07.153Z,14.35
2018-03-21T06:20:07.718Z,13.59
2018-03-21T06:21:08.282Z,13.02
2018-03-21T06:22:08.848Z,12.65
2018-03-21T06:23:09.422Z,11.71
2018-03-21T06:24:09.990Z,10.95
2018-03-21T06:25:10.551Z,10.66
2018-03-21T06:26:11.117Z,10.19
2018-03-21T06:27:11.680Z,9.06
2018-03-21T06:28:12.258Z,8.87
2018-03-21T06:29:12.828Z,8.40
2018-03-21T06:30:13.394Z,7.93
2018-03-21T06:31:13.963Z,7.46
2018-03-21T06:32:14.529Z,7.55
2018-03-21T06:33:15.093Z,6.70
2018-03-21T06:34:15.656Z,6.13
2018-03-21T06:35:16.220Z,5.95
2018-03-21T06:36:16.783Z,5.10
2018-03-21T06:37:17.345Z,4.82
2018-03-21T06:38:17.910Z,4.44
2018-03-21T06:39:18.486Z,3.97
2018-03-21T06:40:19.096Z,3.11
2018-03-21T06:41:19.611Z,2.83
2018-03-21T06:42:20.180Z,2.64
2018-03-21T06:43:20.754Z,2.26
2018-03-21T06:44:21.334Z,1.89
2018-03-21T06:45:21.903Z,1.42
2018-03-21T06:46:22.468Z,1.13
2018-03-21T06:47:23.033Z,0.94
2018-03-21T06:48:23.598Z,0.75
2018-03-21T06:49:24.162Z,0.09
2018-03-21T06:50:24.726Z,0.00
2018-03-21T06:51:25.289Z,0.00
2018-03-21T06:52:25.856Z,0.00
2018-03-21T06:53:26.427Z,0.00
2018-03-21T06:54:26.991Z,0.00
2018-03-21T06:55:27.568Z,0.00
2018-03-21T06:56:28.133Z,0.00
2018-03-21T06:57:28.696Z,0.00
2018-03-21T06:58:29.263Z,0.00
2018-03-21T06:59:29.826Z,0.00
2018-03-21T07:00:30.389Z,0.00
2018-03-21T07:01:30.964Z,0.00
2018-03-21T07:02:31.597Z,0.00
2018-03-21T07:03:32.093Z,0.00
2018-03-21T07:04:32.656Z,0.00
2018-03-21T07:05:33.219Z,0.00
2018-03-21T07:06:33.784Z,0.00
2018-03-21T07:07:34.349Z,0.00
2018-03-21T07:08:34.923Z,0.00
2018-03-21T07:09:35.488Z,0.00
2018-03-21T07:10:36.052Z,0.00
2018-03-21T07:11:36.618Z,0.00
2018-03-21T07:12:37.183Z,0.00
2018-03-21T07:13:37.750Z,0.00
2018-03-21T07:14:38.315Z,0.00
2018-03-21T07:15:38.881Z,0.00
2018-03-21T07:16:39.456Z,0.00
2018-03-21T07:17:40.020Z,0.00
2018-03-21T07:18:40.583Z,0.00
2018-03-21T07:19:41.151Z,0.00
2018-03-21T07:20:41.712Z,0.00
2018-03-21T07:21:42.276Z,0.00
2018-03-21T07:22:42.842Z,0.00
2018-03-21T07:23:43.407Z,0.00
2018-03-21T07:24:43.972Z,0.00
2018-03-21T07:25:44.538Z,0.00
2018-03-21T07:26:45.104Z,0.00
2018-03-21T07:27:45.667Z,0.00
2018-03-21T07:28:46.232Z,0.00
2018-03-21T07:29:46.809Z,0.00
2018-03-21T07:30:47.375Z,0.00
2018-03-21T07:31:47.935Z,0.00
2018-03-21T07:32:48.502Z,0.00
2018-03-21T07:33:49.065Z,0.00
2018-03-21T07:34:49.629Z,0.00
2018-03-21T07:35:50.196Z,0.00
2018-03-21T07:36:50.762Z,0.00
2018-03-21T07:37:51.327Z,0.00
2018-03-21T07:38:51.890Z,0.00
2018-03-21T07:39:52.455Z,0.00
2018-03-21T07:40:53.017Z,0.00
2018-03-21T07:41:53.581Z,0.00
2018-03-21T07:42:54.144Z,0.00
2018-03-21T07:43:54.710Z,0.00
2018-03-21T07:44:55.275Z,0.00
2018-03-21T07:45:55.846Z,0.00
2018-03-21T07:46:56.411Z,0.00
2018-03-21T07:47:56.972Z,0.00
2018-03-21T07:48:57.536Z,0.00
2018-03-21T07:49:58.098Z,0.00
2018-03-21T07:50:58.661Z,0.00
2018-03-21T07:51:59.229Z,0.00
2018-03-21T07:52:59.794Z,0.00
2018-03-21T07:54:00.360Z,0.00
2018-03-21T07:55:00.935Z,0.00
2018-03-21T07:56:01.500Z,0.00
2018-03-21T07:57:02.067Z,0.00
2018-03-21T07:58:02.631Z,0.00
2018-03-21T07:59:03.197Z,0.00
2018-03-21T08:00:03.761Z,0.00
2018-03-21T08:01:04.339Z,0.00
2018-03-21T08:02:04.911Z,0.00
2018-03-21T08:03:05.483Z,0.00
2018-03-21T08:04:06.041Z,0.00
2018-03-21T08:05:06.603Z,0.00
2018-03-21T08:06:07.168Z,0.00
2018-03-21T08:07:07.735Z,0.00
2018-03-21T08:08:08.300Z,0.00
2018-03-21T08:09:08.868Z,0.00
2018-03-21T08:10:09.431Z,0.00
2018-03-21T08:11:09.995Z,0.00
2018-03-21T08:12:10.560Z,0.00
2018-03-21T08:13:11.126Z,0.00
2018-03-21T08:14:11.693Z,0.00
2018-03-21T08:15:12.259Z,0.00
2018-03-21T08:16:12.825Z,0.00
2018-03-21T08:17:13.392Z,0.00
2018-03-21T08:18:13.956Z,0.00
2018-03-21T08:19:14.520Z,0.00
2018-03-21T08:20:15.090Z,0.00
2018-03-21T08:21:15.657Z,0.00
2018-03-21T08:22:16.215Z,0.00
2018-03-21T08:23:16.782Z,0.00
2018-03-21T08:24:17.346Z,1.32
2018-03-21T08:25:17.922Z,2.27
2018-03-21T08:26:18.498Z,2.36
2018-03-21T08:27:19.061Z,3.78
2018-03-21T08:28:19.628Z,4.92
2018-03-21T08:29:20.190Z,5.87
2018-03-21T08:30:20.754Z,7.28
2018-03-21T08:31:21.319Z,8.51
2018-03-21T08:32:21.896Z,10.50
2018-03-21T08:33:22.461Z,11.44
2018-03-21T08:34:23.060Z,13.24
2018-03-21T08:35:23.593Z,15.61
2018-03-21T08:36:24.160Z,18.44
2018-03-21T08:37:24.726Z,18.73
2018-03-21T08:38:25.295Z,22.99
2018-03-21T08:39:25.863Z,24.12
2018-03-21T08:40:26.429Z,26.96
2018-03-21T08:41:27.007Z,31.23
2018-03-21T08:42:27.572Z,35.49
2018-03-21T08:43:28.155Z,38.52
2018-03-21T08:44:28.710Z,40.79
2018-03-21T08:45:29.276Z,46.45
2018-03-21T08:46:29.845Z,48.93
2018-03-21T08:47:30.410Z,52.06
2018-03-21T08:48:30.977Z,54.42
2018-03-21T08:49:31.545Z,56.32
2018-03-21T08:50:32.113Z,58.68
2018-03-21T08:51:32.682Z,62.47
2018-03-21T08:52:33.253Z,64.45
2018-03-21T08:53:33.812Z,67.77
2018-03-21T08:54:34.391Z,70.79
2018-03-21T08:55:34.975Z,70.51
2018-03-21T08:56:35.521Z,72.60
2018-03-21T08:57:36.188Z,73.45
2018-03-21T08:58:36.753Z,76.95
2018-03-21T08:59:37.320Z,75.91
2018-03-21T09:00:37.887Z,78.37
2018-03-21T09:01:38.453Z,81.68
2018-03-21T09:02:39.020Z,81.68
2018-03-21T09:03:39.587Z,79.79
2018-03-21T09:04:40.154Z,80.55
2018-03-21T09:05:40.722Z,80.07
2018-03-21T09:06:41.287Z,82.25
2018-03-21T09:07:41.880Z,83.67
2018-03-21T09:08:42.424Z,83.58
2018-03-21T09:09:42.992Z,85.94
2018-03-21T09:10:43.569Z,90.81
2018-03-21T09:11:44.137Z,91.95
2018-03-21T09:12:44.715Z,94.23
2018-03-21T09:13:45.294Z,95.64
2018-03-21T09:14:45.858Z,96.87
2018-03-21T09:15:46.435Z,95.93
2018-03-21T09:16:47.006Z,95.07
2018-03-21T09:17:47.582Z,95.07
2018-03-21T09:18:48.150Z,94.98
2018-03-21T09:19:48.728Z,95.55
2018-03-21T09:20:49.296Z,93.75
2018-03-21T09:21:49.864Z,94.89
2018-03-21T09:22:50.430Z,92.99
2018-03-21T09:23:50.996Z,93.94
2018-03-21T09:24:51.568Z,94.42
2018-03-21T09:25:52.131Z,94.60
2018-03-21T09:26:52.699Z,94.60
2018-03-21T09:27:53.279Z,95.07
2018-03-21T09:28:53.842Z,94.89
2018-03-21T09:29:54.409Z,94.32
2018-03-21T09:30:54.978Z,92.90
2018-03-21T09:31:55.551Z,94.04
2018-03-21T09:32:56.112Z,94.79
2018-03-21T09:33:56.678Z,96.59
2018-03-21T09:34:57.245Z,95.55
2018-03-21T09:35:57.822Z,95.07
2018-03-21T09:36:58.389Z,95.60
2018-03-21T09:37:58.957Z,97.35
2018-03-21T09:38:59.524Z,97.54
2018-03-21T09:40:00.093Z,96.78
2018-03-21T09:41:00.660Z,95.26
2018-03-21T09:42:01.226Z,95.07
2018-03-21T09:43:01.793Z,97.06
2018-03-21T09:44:02.364Z,98.58
2018-03-21T09:45:02.940Z,99.99
2018-03-21T09:46:03.517Z,99.99
2018-03-21T09:47:04.086Z,99.99
2018-03-21T09:48:04.653Z,99.99
2018-03-21T09:49:05.220Z,99.99
2018-03-21T09:50:05.787Z,99.99
2018-03-21T09:51:06.366Z,99.99
2018-03-21T09:52:06.933Z,99.99
2018-03-21T09:53:07.501Z,99.77
2018-03-21T09:54:08.081Z,98.44
2018-03-21T09:55:08.659Z,99.52
2018-03-21T09:56:09.227Z,97.82
2018-03-21T09:57:09.794Z,97.92
2018-03-21T09:58:10.370Z,98.68
2018-03-21T09:59:10.938Z,97.78
2018-03-21T10:00:11.508Z,97.59
2018-03-21T10:01:12.107Z,99.58
2018-03-21T10:02:12.641Z,99.99
2018-03-21T10:03:13.211Z,99.99
2018-03-21T10:04:13.785Z,99.99
2018-03-21T10:05:14.351Z,99.99
2018-03-21T10:06:14.980Z,99.99
2018-03-21T10:07:15.484Z,99.99
2018-03-21T10:08:16.064Z,99.99
2018-03-21T10:09:16.630Z,99.99
2018-03-21T10:10:17.198Z,99.58
2018-03-21T10:11:17.764Z,99.77
2018-03-21T10:12:18.333Z,99.99
2018-03-21T10:13:18.912Z,99.39
2018-03-21T10:14:19.544Z,98.44
2018-03-21T10:15:20.058Z,98.72
2018-03-21T10:16:20.624Z,99.20
2018-03-21T10:17:21.190Z,99.81
2018-03-21T10:18:21.758Z,96.50
2018-03-21T10:19:22.327Z,97.06
2018-03-21T10:20:22.895Z,98.54
2018-03-21T10:21:23.461Z,99.99
2018-03-21T10:22:24.030Z,99.99
2018-03-21T10:23:24.612Z,99.99
2018-03-21T10:24:25.164Z,99.99
2018-03-21T10:25:25.734Z,99.99
2018-03-21T10:26:26.312Z,99.99
2018-03-21T10:27:26.879Z,99.99
2018-03-21T10:28:27.450Z,99.99
2018-03-21T10:29:28.027Z,99.99
2018-03-21T10:30:28.594Z,99.99
2018-03-21T10:31:29.164Z,99.43
2018-03-21T10:32:29.730Z,97.63
2018-03-21T10:33:30.306Z,98.01
2018-03-21T10:34:30.876Z,99.99
2018-03-21T10:35:31.443Z,99.99
2018-03-21T10:36:32.040Z,99.33
2018-03-21T10:37:32.580Z,98.58
2018-03-21T10:38:33.158Z,97.92
2018-03-21T10:39:33.728Z,99.99
2018-03-21T10:40:34.294Z,99.99
2018-03-21T10:41:34.862Z,99.99
2018-03-21T10:42:35.430Z,97.44
2018-03-21T10:43:35.999Z,98.68
2018-03-21T10:44:36.568Z,99.52
2018-03-21T10:45:37.136Z,99.99
2018-03-21T10:46:37.703Z,99.99
2018-03-21T10:47:38.271Z,99.99
2018-03-21T10:48:38.839Z,99.99
2018-03-21T10:49:39.409Z,99.99
2018-03-21T10:50:39.976Z,99.99
2018-03-21T10:51:40.556Z,99.99
2018-03-21T10:52:41.123Z,99.99
2018-03-21T10:53:41.691Z,99.99
2018-03-21T10:54:42.260Z,99.99
2018-03-21T10:55:42.828Z,99.99
2018-03-21T10:56:43.400Z,99.99
2018-03-21T10:57:43.964Z,99.99
2018-03-21T10:58:44.530Z,99.99
2018-03-21T10:59:45.106Z,98.11
2018-03-21T11:00:45.686Z,97.63
2018-03-21T11:01:46.257Z,99.99
2018-03-21T11:02:46.825Z,99.24
2018-03-21T11:03:47.393Z,98.68
2018-03-21T11:04:47.960Z,97.58
2018-03-21T11:05:48.571Z,96.31
2018-03-21T11:06:49.096Z,92.71
2018-03-21T11:07:49.661Z,99.52
2018-03-21T11:08:50.229Z,98.68
2018-03-21T11:09:50.797Z,96.50
2018-03-21T11:10:51.368Z,96.02
2018-03-21T11:11:51.940Z,97.73
2018-03-21T11:12:52.501Z,98.39
2018-03-21T11:13:53.071Z,97.82
2018-03-21T11:14:53.635Z,99.05
2018-03-21T11:15:54.203Z,97.82
2018-03-21T11:16:54.772Z,99.52
2018-03-21T11:17:55.341Z,99.33
2018-03-21T11:18:55.916Z,96.97
2018-03-21T11:19:56.483Z,96.87
2018-03-21T11:20:57.053Z,99.05
2018-03-21T11:21:57.621Z,97.35
2018-03-21T11:22:58.187Z,95.17
2018-03-21T11:23:58.753Z,93.94
2018-03-21T11:24:59.321Z,92.90
2018-03-21T11:25:59.890Z,93.61
2018-03-21T11:27:00.467Z,95.98
2018-03-21T11:28:01.041Z,98.44
2018-03-21T11:29:01.604Z,98.54
2018-03-21T11:30:02.176Z,98.63
2018-03-21T11:31:02.743Z,96.45
2018-03-21T11:32:03.319Z,99.99
2018-03-21T11:33:03.891Z,99.99
2018-03-21T11:34:04.494Z,99.67
2018-03-21T11:35:05.034Z,99.99
2018-03-21T11:36:05.601Z,99.99
2018-03-21T11:37:06.170Z,99.99
2018-03-21T11:38:06.736Z,99.99
2018-03-21T11:39:07.302Z,99.99
2018-03-21T11:40:07.872Z,99.99
2018-03-21T11:41:08.440Z,99.99
2018-03-21T11:42:09.023Z,99.99
2018-03-21T11:43:09.587Z,99.99
2018-03-21T11:44:10.155Z,99.99
2018-03-21T11:45:10.730Z,99.99
2018-03-21T11:46:11.291Z,99.99
2018-03-21T11:47:11.858Z,99.99
2018-03-21T11:48:12.424Z,99.99
2018-03-21T11:49:12.995Z,99.99
2018-03-21T11:50:13.563Z,99.99
2018-03-21T11:51:14.172Z,99.99
2018-03-21T11:52:14.711Z,99.99
2018-03-21T11:53:15.280Z,99.99
2018-03-21T11:54:15.848Z,99.99
2018-03-21T11:55:16.415Z,99.99
2018-03-21T11:56:16.986Z,99.99
2018-03-21T11:57:17.560Z,99.99
2018-03-21T11:58:18.126Z,99.99
2018-03-21T11:59:18.703Z,99.99
2018-03-21T12:00:19.270Z,99.99
2018-03-21T12:01:19.839Z,99.99
2018-03-21T12:02:20.406Z,99.99
2018-03-21T12:03:20.973Z,99.99
2018-03-21T12:04:21.552Z,99.99
2018-03-21T12:05:22.120Z,99.99
2018-03-21T12:06:22.686Z,99.99
2018-03-21T12:07:23.254Z,99.99
2018-03-21T12:08:23.821Z,99.99
2018-03-21T12:09:24.399Z,99.99
2018-03-21T12:10:24.983Z,99.99
2018-03-21T12:11:25.544Z,99.99
2018-03-21T12:12:26.112Z,99.99
2018-03-21T12:13:26.678Z,99.99
2018-03-21T12:14:27.245Z,99.99
2018-03-21T12:15:27.812Z,99.99
2018-03-21T12:16:28.380Z,99.99
2018-03-21T12:17:28.958Z,99.99
2018-03-21T12:18:29.525Z,99.99
2018-03-21T12:19:30.104Z,99.99
2018-03-21T12:20:30.676Z,99.99
2018-03-21T12:21:31.251Z,99.99
2018-03-21T12:22:31.819Z,99.99
2018-03-21T12:23:32.386Z,99.99
2018-03-21T12:24:32.965Z,99.99
2018-03-21T12:25:33.531Z,99.99
2018-03-21T12:26:34.099Z,99.99
2018-03-21T12:27:34.666Z,99.99
2018-03-21T12:28:35.232Z,99.99
2018-03-21T12:29:35.802Z,99.99
2018-03-21T12:30:36.372Z,99.99
2018-03-21T12:31:36.939Z,99.99
2018-03-21T12:32:37.516Z,99.99
2018-03-21T12:33:38.084Z,99.99
2018-03-21T12:34:38.654Z,99.99
2018-03-21T12:35:39.221Z,99.99
2018-03-21T12:36:39.788Z,99.99
2018-03-21T12:37:40.356Z,99.99
2018-03-21T12:38:40.934Z,99.99
2018-03-21T12:39:41.502Z,99.99
2018-03-21T12:40:42.082Z,99.99
2018-03-21T12:41:42.650Z,99.99
2018-03-21T12:42:43.217Z,99.99
2018-03-21T12:43:43.784Z,99.99
2018-03-21T12:44:44.418Z,99.99
2018-03-21T12:45:44.921Z,99.99
2018-03-21T12:46:45.487Z,99.99
2018-03-21T12:47:46.057Z,99.99
2018-03-21T12:48:46.624Z,99.99
2018-03-21T12:49:47.203Z,99.99
2018-03-21T12:50:47.771Z,99.99
2018-03-21T12:51:48.350Z,99.99
2018-03-21T12:52:48.921Z,99.99
2018-03-21T12:53:49.486Z,99.99
2018-03-21T12:54:50.055Z,99.99
2018-03-21T12:55:50.748Z,99.99
2018-03-21T12:56:51.190Z,99.99
2018-03-21T12:57:51.763Z,99.99
2018-03-21T12:58:52.328Z,99.99
2018-03-21T12:59:52.908Z,99.99
2018-03-21T13:00:53.480Z,99.99
2018-03-21T13:01:54.049Z,99.99
2018-03-21T13:02:54.620Z,99.99
2018-03-21T13:03:55.185Z,99.99